createdAt,value
2019-01-26T00:01:37.760Z,-0.99
2019-01-26T00:04:06.850Z,-0.93
2019-01-26T00:06:35.764Z,-0.93
2019-01-26T00:09:09.741Z,-0.82
2019-01-26T00:11:38.819Z,-0.78
2019-01-26T00:14:07.818Z,-0.81
2019-01-26T00:16:36.768Z,-0.67
2019-01-26T00:19:05.744Z,-0.61
2019-01-26T00:21:34.738Z,-0.57
2019-01-26T00:24:03.679Z,-0.55
2019-01-26T00:26:36.385Z,-0.30
2019-01-26T00:29:03.366Z,-0.42
2019-01-26T00:31:32.251Z,-0.48
2019-01-26T00:34:01.228Z,-0.49
2019-01-26T00:36:30.209Z,-0.49
2019-01-26T00:38:59.156Z,-0.33
2019-01-26T00:41:28.125Z,-0.13
2019-01-26T00:43:56.927Z,-0.12
2019-01-26T00:46:28.548Z,-0.14
2019-01-26T00:48:56.539Z,-0.09
2019-01-26T00:51:25.435Z,0.14
2019-01-26T00:53:54.321Z,0.10
2019-01-26T00:56:23.295Z,0.10
2019-01-26T00:58:52.298Z,0.23
2019-01-26T01:01:21.238Z,0.23
2019-01-26T01:03:50.203Z,0.33
2019-01-26T01:06:19.087Z,0.32
2019-01-26T01:08:48.128Z,0.37
2019-01-26T01:11:17.152Z,0.27
2019-01-26T01:13:46.061Z,0.45
2019-01-26T01:16:15.019Z,0.44
2019-01-26T01:18:43.942Z,0.41
2019-01-26T01:21:12.812Z,0.53
2019-01-26T01:23:41.789Z,0.61
2019-01-26T01:26:10.607Z,0.58
2019-01-26T01:28:39.531Z,0.56
2019-01-26T01:31:08.537Z,0.75
2019-01-26T01:33:37.662Z,0.77
2019-01-26T01:36:06.582Z,0.78
2019-01-26T01:38:35.461Z,0.90
2019-01-26T01:41:04.446Z,1.01
2019-01-26T01:43:33.432Z,0.99
2019-01-26T01:46:02.342Z,1.02
2019-01-26T01:48:31.283Z,1.01
2019-01-26T01:51:00.329Z,1.12
2019-01-26T01:53:29.262Z,1.20
2019-01-26T01:55:58.244Z,1.14
2019-01-26T01:58:27.146Z,1.19
2019-01-26T02:00:56.162Z,1.23
2019-01-26T02:03:25.002Z,1.29
2019-01-26T02:05:53.887Z,1.28
2019-01-26T02:08:22.837Z,1.25
2019-01-26T02:10:51.712Z,1.34
2019-01-26T02:13:20.635Z,1.28
2019-01-26T02:15:49.594Z,1.46
2019-01-26T02:18:18.577Z,1.39
2019-01-26T02:20:47.540Z,1.39
2019-01-26T02:23:16.532Z,1.28
2019-01-26T02:25:45.380Z,1.40
2019-01-26T02:28:14.244Z,1.44
2019-01-26T02:30:43.193Z,1.40
2019-01-26T02:33:12.052Z,1.54
2019-01-26T02:35:40.914Z,1.39
2019-01-26T02:38:09.815Z,1.39
2019-01-26T02:40:38.714Z,1.61
2019-01-26T02:43:07.603Z,1.63
2019-01-26T02:45:36.490Z,1.71
2019-01-26T02:48:05.379Z,1.71
2019-01-26T02:50:34.294Z,1.80
2019-01-26T02:53:03.214Z,1.78
2019-01-26T02:55:32.248Z,1.81
2019-01-26T02:58:01.185Z,1.91
2019-01-26T03:00:30.663Z,1.97
2019-01-26T03:02:59.493Z,2.05
2019-01-26T03:05:28.454Z,2.02
2019-01-26T03:07:57.341Z,1.93
2019-01-26T03:10:26.317Z,2.09
2019-01-26T03:12:55.201Z,2.07
2019-01-26T03:15:24.695Z,2.01
2019-01-26T03:17:53.620Z,1.90
2019-01-26T03:20:22.655Z,1.92
2019-01-26T03:22:51.533Z,2.02
2019-01-26T03:25:20.441Z,2.00
2019-01-26T03:27:49.515Z,2.06
2019-01-26T03:30:20.577Z,2.05
2019-01-26T03:32:49.466Z,2.07
2019-01-26T03:35:18.364Z,2.08
2019-01-26T03:37:47.353Z,2.11
2019-01-26T03:40:18.268Z,2.11
2019-01-26T03:42:48.409Z,2.09
2019-01-26T03:45:17.388Z,2.13
2019-01-26T03:47:46.357Z,2.18
2019-01-26T03:50:42.753Z,2.19
2019-01-26T03:53:11.774Z,2.19
2019-01-26T03:55:40.747Z,2.23
2019-01-26T03:58:09.689Z,2.30
2019-01-26T04:00:38.652Z,2.24
2019-01-26T04:03:07.647Z,2.44
2019-01-26T04:05:36.639Z,2.39
2019-01-26T04:08:05.617Z,2.34
2019-01-26T04:10:34.541Z,2.37
2019-01-26T04:13:03.503Z,2.43
2019-01-26T04:15:32.398Z,2.36
2019-01-26T04:18:01.278Z,2.36
2019-01-26T04:20:30.221Z,2.37
2019-01-26T04:22:59.222Z,2.42
2019-01-26T04:25:28.088Z,2.47
2019-01-26T04:27:56.987Z,2.50
2019-01-26T04:30:25.975Z,2.48
2019-01-26T04:32:54.959Z,2.54
2019-01-26T04:35:23.872Z,2.52
2019-01-26T04:37:52.758Z,2.69
2019-01-26T04:40:21.741Z,2.70
2019-01-26T04:42:50.636Z,2.66
2019-01-26T04:45:21.685Z,2.76
2019-01-26T04:47:50.619Z,2.80
2019-01-26T04:50:19.940Z,2.77
2019-01-26T04:52:48.830Z,2.77
2019-01-26T04:55:19.308Z,2.83
2019-01-26T04:57:48.248Z,2.81
2019-01-26T05:00:27.949Z,2.86
2019-01-26T05:02:56.909Z,2.81
2019-01-26T05:05:25.911Z,2.78
2019-01-26T05:07:54.802Z,2.83
2019-01-26T05:10:23.987Z,2.83
2019-01-26T05:12:52.870Z,2.85
2019-01-26T05:15:21.778Z,2.76
2019-01-26T05:17:50.749Z,2.86
2019-01-26T05:20:22.165Z,2.80
2019-01-26T05:22:51.158Z,2.83
2019-01-26T05:25:20.015Z,2.86
2019-01-26T05:27:48.911Z,2.82
2019-01-26T05:30:23.744Z,2.79
2019-01-26T05:32:52.723Z,2.73
2019-01-26T05:35:21.692Z,2.85
2019-01-26T05:37:50.698Z,2.87
2019-01-26T05:40:19.763Z,2.84
2019-01-26T05:42:48.610Z,2.87
2019-01-26T05:45:19.355Z,2.82
2019-01-26T05:47:49.624Z,2.69
2019-01-26T05:50:20.473Z,2.78
2019-01-26T05:52:49.374Z,2.73
2019-01-26T05:55:18.362Z,2.71
2019-01-26T05:57:47.337Z,2.72
2019-01-26T06:00:20.830Z,2.76
2019-01-26T06:02:49.814Z,2.75
2019-01-26T06:05:18.763Z,2.83
2019-01-26T06:07:47.753Z,2.91
2019-01-26T06:10:16.757Z,2.82
2019-01-26T06:12:45.731Z,2.83
2019-01-26T06:15:14.802Z,2.89
2019-01-26T06:17:43.783Z,2.81
2019-01-26T06:20:12.922Z,2.90
2019-01-26T06:22:41.820Z,2.88
2019-01-26T06:25:12.137Z,2.80
2019-01-26T06:27:41.106Z,2.87
2019-01-26T06:30:18.634Z,2.80
2019-01-26T06:32:47.516Z,3.03
2019-01-26T06:35:16.621Z,2.93
2019-01-26T06:37:45.611Z,2.93
2019-01-26T06:40:16.342Z,2.99
2019-01-26T06:42:45.316Z,3.07
2019-01-26T06:45:15.840Z,3.04
2019-01-26T06:47:44.826Z,3.04
2019-01-26T06:50:18.138Z,2.97
2019-01-26T06:52:47.143Z,3.01
2019-01-26T06:55:16.145Z,2.91
2019-01-26T06:57:45.027Z,3.00
2019-01-26T07:00:16.299Z,3.03
2019-01-26T07:02:45.202Z,3.06
2019-01-26T07:05:25.980Z,3.01
2019-01-26T07:07:54.914Z,3.01
2019-01-26T07:10:23.802Z,2.99
2019-01-26T07:12:52.802Z,3.04
2019-01-26T07:15:21.751Z,3.08
2019-01-26T07:17:50.610Z,3.12
2019-01-26T07:20:19.575Z,3.01
2019-01-26T07:22:48.653Z,3.02
2019-01-26T07:25:17.589Z,3.05
2019-01-26T07:27:46.577Z,3.14
2019-01-26T07:30:17.499Z,3.20
2019-01-26T07:32:46.510Z,3.17
2019-01-26T07:35:49.004Z,3.17
2019-01-26T07:38:17.885Z,3.18
2019-01-26T07:40:46.781Z,3.19
2019-01-26T07:43:15.675Z,3.18
2019-01-26T07:45:44.577Z,3.21
2019-01-26T07:48:16.967Z,3.32
2019-01-26T07:50:44.191Z,3.37
2019-01-26T07:53:13.070Z,3.34
2019-01-26T07:55:42.047Z,3.30
2019-01-26T07:58:11.033Z,3.36
2019-01-26T08:00:41.246Z,3.29
2019-01-26T08:03:10.416Z,3.25
2019-01-26T08:05:39.389Z,3.23
2019-01-26T08:08:08.314Z,3.17
2019-01-26T08:10:37.211Z,3.15
2019-01-26T08:13:06.382Z,3.04
2019-01-26T08:15:37.116Z,2.97
2019-01-26T08:18:07.655Z,2.94
2019-01-26T08:20:36.533Z,3.05
2019-01-26T08:23:05.655Z,3.03
2019-01-26T08:25:34.611Z,2.99
2019-01-26T08:28:03.700Z,2.99
2019-01-26T08:30:32.665Z,3.06
2019-01-26T08:33:01.668Z,3.08
2019-01-26T08:35:30.556Z,3.08
2019-01-26T08:37:59.470Z,3.16
2019-01-26T08:40:28.467Z,3.23
2019-01-26T08:42:57.377Z,3.29
2019-01-26T08:45:26.248Z,3.34
2019-01-26T08:47:55.145Z,3.30
2019-01-26T08:50:25.570Z,3.25
2019-01-26T08:52:54.586Z,3.32
2019-01-26T08:55:23.556Z,3.29
2019-01-26T08:57:52.548Z,3.38
2019-01-26T09:00:23.663Z,3.47
2019-01-26T09:03:12.030Z,3.40
2019-01-26T09:05:58.153Z,3.36
2019-01-26T09:08:27.152Z,3.42
2019-01-26T09:10:56.224Z,3.47
2019-01-26T09:13:25.173Z,3.49
2019-01-26T09:15:54.178Z,3.43
2019-01-26T09:18:23.177Z,3.39
2019-01-26T09:20:52.147Z,3.46
2019-01-26T09:23:21.157Z,3.44
2019-01-26T09:25:50.052Z,3.46
2019-01-26T09:28:19.362Z,3.58
2019-01-26T09:30:48.248Z,3.62
2019-01-26T09:33:17.286Z,3.66
2019-01-26T09:35:46.182Z,3.63
2019-01-26T09:38:15.128Z,3.61
2019-01-26T09:40:44.988Z,3.54
2019-01-26T09:43:13.905Z,3.59
2019-01-26T09:45:42.980Z,3.52
2019-01-26T09:48:11.959Z,3.49
2019-01-26T09:50:41.964Z,3.50
2019-01-26T09:53:11.037Z,3.53
2019-01-26T09:55:39.990Z,3.52
2019-01-26T09:58:08.924Z,3.47
2019-01-26T10:00:37.897Z,3.42
2019-01-26T10:03:07.152Z,3.60
2019-01-26T10:05:36.112Z,3.76
2019-01-26T10:08:05.310Z,3.62
2019-01-26T10:10:34.171Z,3.70
2019-01-26T10:13:03.319Z,3.70
2019-01-26T10:15:32.388Z,3.59
2019-01-26T10:18:01.379Z,3.72
2019-01-26T10:20:34.148Z,3.91
2019-01-26T10:23:03.136Z,4.02
2019-01-26T10:25:32.100Z,3.91
2019-01-26T10:28:01.098Z,3.80
2019-01-26T10:30:35.218Z,3.92
2019-01-26T10:33:04.255Z,3.79
2019-01-26T10:35:56.816Z,3.83
2019-01-26T10:38:25.848Z,3.91
2019-01-26T10:41:22.908Z,3.66
2019-01-26T10:43:52.793Z,3.88
2019-01-26T10:46:21.734Z,3.83
2019-01-26T10:48:51.670Z,3.70
2019-01-26T10:51:20.606Z,3.59
2019-01-26T10:54:07.597Z,3.63
2019-01-26T10:56:36.499Z,3.71
2019-01-26T10:59:32.804Z,3.70
2019-01-26T11:02:01.735Z,3.90
2019-01-26T11:04:30.643Z,3.85
2019-01-26T11:06:59.609Z,3.93
2019-01-26T11:09:28.631Z,3.85
2019-01-26T11:11:57.570Z,3.98
2019-01-26T11:14:26.574Z,3.77
2019-01-26T11:16:55.554Z,3.86
2019-01-26T11:19:24.551Z,3.86
2019-01-26T11:21:53.547Z,3.84
2019-01-26T11:24:22.601Z,3.79
2019-01-26T11:26:51.494Z,3.75
2019-01-26T11:29:20.465Z,3.96
2019-01-26T11:31:49.494Z,4.09
2019-01-26T11:34:21.322Z,3.88
2019-01-26T11:36:50.296Z,4.05
2019-01-26T11:39:19.203Z,4.11
2019-01-26T11:41:48.202Z,4.10
2019-01-26T11:44:17.135Z,4.04
2019-01-26T11:46:52.947Z,4.05
2019-01-26T11:49:21.817Z,4.15
2019-01-26T11:52:09.798Z,4.05
2019-01-26T11:54:59.101Z,4.10
2019-01-26T11:57:31.005Z,4.19
2019-01-26T12:00:28.009Z,4.21
2019-01-26T12:03:28.403Z,4.35
2019-01-26T12:06:14.844Z,4.08
2019-01-26T12:08:43.852Z,4.29
2019-01-26T12:11:12.873Z,4.09
2019-01-26T12:13:41.904Z,4.10
2019-01-26T12:16:10.903Z,4.24
2019-01-26T12:18:39.843Z,4.36
2019-01-26T12:21:08.818Z,4.20
2019-01-26T12:23:37.756Z,4.28
2019-01-26T12:26:06.840Z,4.36
2019-01-26T12:28:35.815Z,4.43
2019-01-26T12:31:04.892Z,4.42
2019-01-26T12:33:33.937Z,4.33
2019-01-26T12:36:02.800Z,4.37
2019-01-26T12:38:31.769Z,4.40
2019-01-26T12:41:00.758Z,4.42
2019-01-26T12:43:30.166Z,4.28
2019-01-26T12:45:59.209Z,4.27
2019-01-26T12:48:28.209Z,4.33
2019-01-26T12:50:57.251Z,4.36
2019-01-26T12:53:26.147Z,4.37
2019-01-26T12:55:55.118Z,4.34
2019-01-26T12:58:24.122Z,4.37
2019-01-26T13:00:53.160Z,4.44
2019-01-26T13:03:22.210Z,4.58
2019-01-26T13:05:51.213Z,4.44
2019-01-26T13:08:20.099Z,4.37
2019-01-26T13:10:52.131Z,4.54
2019-01-26T13:13:21.300Z,4.50
2019-01-26T13:15:50.306Z,4.35
2019-01-26T13:18:19.361Z,4.41
2019-01-26T13:20:48.385Z,4.52
2019-01-26T13:23:17.284Z,4.60
2019-01-26T13:25:46.213Z,4.44
2019-01-26T13:28:15.188Z,4.41
2019-01-26T13:30:44.123Z,4.42
2019-01-26T13:33:13.021Z,4.50
2019-01-26T13:35:41.931Z,4.50
2019-01-26T13:38:11.007Z,4.61
2019-01-26T13:40:39.982Z,4.61
2019-01-26T13:43:08.968Z,4.51
2019-01-26T13:45:38.047Z,4.65
2019-01-26T13:48:07.035Z,4.66
2019-01-26T13:50:36.193Z,4.52
2019-01-26T13:53:05.353Z,4.40
2019-01-26T13:55:34.281Z,4.44
2019-01-26T13:58:03.339Z,4.43
2019-01-26T14:00:32.699Z,4.55
2019-01-26T14:03:03.163Z,4.59
2019-01-26T14:05:32.160Z,4.49
2019-01-26T14:08:01.165Z,4.52
2019-01-26T14:13:58.546Z,4.59
2019-01-26T14:17:27.583Z,4.49
2019-01-26T14:19:56.527Z,4.51
2019-01-26T14:22:25.489Z,4.51
2019-01-26T14:24:54.432Z,4.57
2019-01-26T14:27:23.427Z,4.60
2019-01-26T14:29:52.480Z,4.51
2019-01-26T14:32:21.542Z,4.55
2019-01-26T14:35:41.920Z,4.50
2019-01-26T14:38:10.839Z,4.30
2019-01-26T14:44:45.134Z,4.42
2019-01-26T14:47:14.115Z,4.36
2019-01-26T14:49:43.204Z,4.39
2019-01-26T14:52:12.308Z,4.35
2019-01-26T14:54:41.311Z,4.30
2019-01-26T14:57:10.278Z,4.26
2019-01-26T14:59:39.282Z,4.21
2019-01-26T15:02:08.425Z,4.29
2019-01-26T15:04:37.374Z,4.24
2019-01-26T15:07:06.278Z,4.30
2019-01-26T15:09:35.334Z,4.22
2019-01-26T15:12:04.388Z,4.24
2019-01-26T15:14:33.405Z,4.20
2019-01-26T15:17:02.499Z,4.17
2019-01-26T15:19:31.419Z,4.32
2019-01-26T15:22:00.419Z,4.36
2019-01-26T15:24:29.482Z,4.25
2019-01-26T15:30:29.443Z,4.19
2019-01-26T15:32:58.815Z,4.25
2019-01-26T15:35:27.863Z,4.24
2019-01-26T15:37:56.921Z,4.26
2019-01-26T15:40:25.890Z,4.19
2019-01-26T15:42:54.991Z,4.25
2019-01-26T15:45:29.974Z,4.25
2019-01-26T15:47:58.969Z,4.24
2019-01-26T15:50:28.017Z,4.17
2019-01-26T15:52:57.024Z,4.19
2019-01-26T15:55:26.574Z,4.29
2019-01-26T15:58:05.611Z,4.34
2019-01-26T16:00:37.097Z,4.39
2019-01-26T16:03:06.154Z,4.33
2019-01-26T16:05:38.158Z,4.23
2019-01-26T16:08:07.842Z,4.21
2019-01-26T16:10:36.860Z,4.27
2019-01-26T16:13:06.164Z,4.21
2019-01-26T16:15:35.562Z,4.27
2019-01-26T16:18:05.974Z,4.34
2019-01-26T16:20:35.020Z,4.39
2019-01-26T16:23:09.426Z,4.43
2019-01-26T16:25:34.952Z,4.51
2019-01-26T16:28:03.952Z,4.54
2019-01-26T16:30:33.296Z,4.48
2019-01-26T16:33:59.454Z,4.52
2019-01-26T16:36:28.501Z,4.50
2019-01-26T16:38:57.495Z,4.42
2019-01-26T16:41:26.539Z,4.45
2019-01-26T16:43:55.555Z,4.42
2019-01-26T16:46:24.499Z,4.44
2019-01-26T16:48:54.087Z,4.49
2019-01-26T16:51:23.072Z,4.48
2019-01-26T16:53:52.016Z,4.48
2019-01-26T16:56:21.012Z,4.55
2019-01-26T16:58:50.019Z,4.57
2019-01-26T17:02:16.829Z,4.52
2019-01-26T17:04:45.714Z,4.65
2019-01-26T17:07:14.768Z,4.66
2019-01-26T17:09:43.832Z,4.71
2019-01-26T17:12:12.874Z,4.77
2019-01-26T17:14:41.919Z,4.76
2019-01-26T17:17:10.946Z,4.79
2019-01-26T17:19:40.001Z,4.87
2019-01-26T17:22:09.040Z,4.85
2019-01-26T17:24:38.034Z,4.93
2019-01-26T17:27:07.036Z,5.04
2019-01-26T17:29:36.012Z,5.18
2019-01-26T17:32:05.013Z,5.30
2019-01-26T17:34:33.979Z,5.38
2019-01-26T17:37:02.992Z,5.40
2019-01-26T17:39:32.114Z,5.54
2019-01-26T17:42:01.035Z,5.71
2019-01-26T17:44:30.115Z,5.79
2019-01-26T17:46:59.272Z,5.71
2019-01-26T17:49:28.707Z,5.85
2019-01-26T17:55:26.448Z,5.88
2019-01-26T17:57:55.896Z,5.83
2019-01-26T18:00:43.235Z,5.96
2019-01-26T18:03:12.852Z,5.97
2019-01-26T18:05:43.069Z,6.01
2019-01-26T18:08:12.836Z,6.01
2019-01-26T18:10:42.535Z,5.93
2019-01-26T18:13:12.539Z,5.98
2019-01-26T18:15:44.105Z,5.94
2019-01-26T18:18:13.430Z,6.00
2019-01-26T18:20:48.930Z,6.06
2019-01-26T18:23:15.128Z,6.07
2019-01-26T18:25:45.454Z,6.01
2019-01-26T18:28:14.628Z,6.01
2019-01-26T18:30:43.732Z,6.10
2019-01-26T18:33:12.729Z,6.05
2019-01-26T18:35:42.337Z,6.07
2019-01-26T18:38:11.337Z,6.04
2019-01-26T18:40:40.318Z,6.07
2019-01-26T18:43:09.271Z,6.14
2019-01-26T18:45:38.524Z,6.12
2019-01-26T18:48:07.977Z,6.05
2019-01-26T18:50:39.481Z,6.14
2019-01-26T18:53:09.637Z,6.12
2019-01-26T18:55:39.804Z,6.15
2019-01-26T18:58:08.871Z,6.14
2019-01-26T19:00:43.502Z,6.15
2019-01-26T19:03:36.706Z,6.12
2019-01-26T19:06:06.581Z,6.13
2019-01-26T19:08:35.605Z,6.19
2019-01-26T19:11:04.918Z,6.15
2019-01-26T19:13:33.922Z,6.15
2019-01-26T19:16:02.897Z,6.13
2019-01-26T19:18:31.877Z,6.15
2019-01-26T19:21:03.349Z,6.10
2019-01-26T19:23:31.502Z,6.17
2019-01-26T19:26:00.446Z,6.13
2019-01-26T19:28:29.511Z,6.18
2019-01-26T19:30:58.608Z,6.12
2019-01-26T19:33:27.637Z,6.05
2019-01-26T19:35:56.658Z,6.09
2019-01-26T19:38:25.847Z,6.10
2019-01-26T19:40:54.845Z,6.09
2019-01-26T19:43:24.892Z,6.11
2019-01-26T19:45:53.777Z,6.10
2019-01-26T19:48:22.885Z,6.10
2019-01-26T19:50:51.841Z,6.04
2019-01-26T19:53:20.872Z,6.07
2019-01-26T19:55:50.598Z,6.10
2019-01-26T19:58:20.099Z,6.14
2019-01-26T20:00:49.155Z,6.10
2019-01-26T20:03:18.101Z,6.11
2019-01-26T20:05:48.177Z,6.03
2019-01-26T20:08:17.263Z,6.10
2019-01-26T20:10:46.285Z,6.09
2019-01-26T20:13:15.390Z,6.10
2019-01-26T20:15:44.621Z,6.07
2019-01-26T20:18:13.680Z,6.09
2019-01-26T20:20:42.607Z,6.07
2019-01-26T20:23:11.527Z,6.07
2019-01-26T20:25:40.422Z,5.99
2019-01-26T20:28:09.444Z,6.02
2019-01-26T20:30:38.639Z,6.06
2019-01-26T20:33:07.703Z,6.01
2019-01-26T20:35:36.625Z,6.05
2019-01-26T20:38:05.650Z,6.06
2019-01-26T20:40:34.928Z,6.04
2019-01-26T20:43:03.928Z,5.95
2019-01-26T20:45:32.960Z,5.94
2019-01-26T20:48:01.977Z,5.99
2019-01-26T20:50:31.133Z,5.95
2019-01-26T20:53:06.433Z,5.99
2019-01-26T20:55:36.333Z,5.99
2019-01-26T20:58:26.424Z,6.05
2019-01-26T21:00:55.446Z,6.03
2019-01-26T21:03:24.482Z,5.91
2019-01-26T21:05:53.617Z,5.93
2019-01-26T21:08:22.602Z,5.95
2019-01-26T21:10:51.587Z,5.92
2019-01-26T21:13:20.513Z,5.85
2019-01-26T21:15:49.603Z,5.87
2019-01-26T21:18:18.603Z,5.89
2019-01-26T21:20:47.580Z,5.98
2019-01-26T21:23:16.730Z,6.03
2019-01-26T21:25:45.707Z,6.02
2019-01-26T21:28:14.783Z,6.00
2019-01-26T21:31:23.077Z,5.98
2019-01-26T21:33:52.072Z,6.04
2019-01-26T21:36:21.140Z,5.96
2019-01-26T21:38:50.241Z,5.97
2019-01-26T21:41:19.245Z,6.05
2019-01-26T21:43:48.296Z,5.99
2019-01-26T21:46:17.307Z,6.02
2019-01-26T21:48:46.282Z,6.04
2019-01-26T21:51:15.322Z,6.00
2019-01-26T21:53:44.223Z,6.06
2019-01-26T21:56:13.228Z,6.03
2019-01-26T21:58:42.158Z,6.04
2019-01-26T22:01:11.138Z,6.08
2019-01-26T22:03:40.169Z,6.15
2019-01-26T22:06:09.161Z,6.17
2019-01-26T22:08:38.160Z,6.16
2019-01-26T22:11:07.175Z,6.15
2019-01-26T22:13:36.210Z,6.08
2019-01-26T22:16:05.470Z,6.03
2019-01-26T22:18:34.429Z,6.09
2019-01-26T22:21:03.385Z,6.09
2019-01-26T22:23:32.384Z,6.08
2019-01-26T22:26:01.380Z,6.10
2019-01-26T22:28:30.417Z,6.04
2019-01-26T22:30:59.337Z,5.98
2019-01-26T22:33:28.219Z,6.07
2019-01-26T22:35:57.179Z,6.00
2019-01-26T22:38:26.205Z,6.07
2019-01-26T22:40:55.139Z,6.09
2019-01-26T22:43:24.066Z,6.08
2019-01-26T22:45:53.219Z,6.15
2019-01-26T22:48:23.589Z,6.17
2019-01-26T22:50:52.549Z,6.12
2019-01-26T22:53:21.429Z,6.13
2019-01-26T22:55:50.388Z,6.07
2019-01-26T22:58:19.316Z,6.13
2019-01-26T23:00:54.255Z,6.10
2019-01-26T23:03:30.581Z,6.05
2019-01-26T23:06:25.614Z,5.98
2019-01-26T23:08:54.892Z,6.04
2019-01-26T23:12:03.722Z,5.91
2019-01-26T23:14:51.853Z,5.89
2019-01-26T23:21:10.289Z,5.89
2019-01-26T23:24:19.520Z,5.78
2019-01-26T23:27:14.257Z,5.80
2019-01-26T23:30:31.673Z,5.75
2019-01-26T23:33:00.702Z,5.80
2019-01-26T23:35:29.610Z,5.72
2019-01-26T23:37:58.551Z,5.67
2019-01-26T23:40:27.547Z,5.65
2019-01-26T23:43:09.081Z,5.64
2019-01-26T23:45:38.060Z,5.63
2019-01-26T23:48:06.994Z,5.63
2019-01-26T23:50:35.909Z,5.71
2019-01-26T23:53:05.289Z,5.63
2019-01-26T23:55:34.205Z,5.70
2019-01-26T23:58:03.198Z,5.64
